Time;durP1;ratioP1;P1;durP2;ratioP2;P2;SDS_P1;SDS_P2;PMS_P1;PMS_P2;Temp;Humidity;BMP_temperature;BMP_pressure;BME280_temperature;BME280_humidity;BME280_pressure;Samples;Min_cycle;Max_cycle;Signal;HPM_P1;HPM_P2
2021/11/01 00:00:06;;;;;;;44.00;31.77;;;;;;;5.32;75.64;101044.70;1706760;83;21039;-68
2021/11/01 00:02:33;;;;;;;36.97;30.70;;;;;;;5.36;75.61;101045.27;1682732;84;21080;-68
2021/11/01 00:05:00;;;;;;;40.12;30.45;;;;;;;5.38;75.47;101043.32;1659395;85;21021;-69
2021/11/01 00:07:28;;;;;;;42.17;32.60;;;;;;;5.39;75.68;101042.36;1681145;84;21048;-69
2021/11/01 00:09:54;;;;;;;42.23;33.28;;;;;;;5.35;75.69;101044.44;1718389;83;21322;-69
2021/11/01 00:12:26;;;;;;;42.67;33.93;;;;;;;5.30;75.52;101037.89;1711307;78;21009;-70
2021/11/01 00:14:49;;;;;;;44.47;35.77;;;;;;;5.23;75.50;101040.23;1709570;83;21119;-69
2021/11/01 00:17:15;;;;;;;46.90;34.40;;;;;;;5.18;75.47;101043.30;1679297;84;21094;-70
2021/11/01 00:19:43;;;;;;;42.95;32.93;;;;;;;5.16;75.31;101038.64;1676581;84;21114;-71
2021/11/01 00:22:09;;;;;;;40.37;32.47;;;;;;;5.17;75.18;101034.17;1680126;83;21012;-68
2021/11/01 00:24:35;;;;;;;;;;;;;;;5.18;75.19;101032.73;1701582;83;21061;-70
2021/11/01 00:27:04;;;;;;;43.40;33.63;;;;;;;5.16;75.25;101033.35;1697482;83;20194;-70
2021/11/01 00:29:30;;;;;;;50.07;36.60;;;;;;;5.05;75.58;101034.78;1698806;83;21126;-70
2021/11/01 00:31:56;;;;;;;52.45;37.08;;;;;;;5.02;75.68;101024.47;1697105;83;21077;-70
2021/11/01 00:34:23;;;;;;;51.85;39.13;;;;;;;4.97;75.53;101025.36;1696293;83;21036;-69
2021/11/01 00:36:53;;;;;;;50.07;37.07;;;;;;;4.92;75.54;101028.91;1696613;83;21570;-70
2021/11/01 00:39:21;;;;;;;49.27;36.87;;;;;;;4.88;75.55;101022.56;1707486;83;21590;-70
2021/11/01 00:41:47;;;;;;;45.43;33.57;;;;;;;4.87;75.42;101021.38;1702069;83;21063;-69
2021/11/01 00:44:13;;;;;;;51.10;36.65;;;;;;;4.83;75.62;101015.52;1702317;83;21095;-72
2021/11/01 00:46:40;;;;;;;48.02;36.77;;;;;;;4.78;75.73;101015.08;1696981;83;21063;-69
2021/11/01 00:49:08;;;;;;;48.87;36.90;;;;;;;4.76;76.17;101009.59;1705138;83;21142;-68
2021/11/01 00:51:41;;;;;;;46.27;36.93;;;;;;;4.71;76.48;101014.42;1706555;83;20995;-71
2021/11/01 00:54:08;;;;;;;49.30;38.20;;;;;;;4.67;76.63;101012.53;1698102;83;21102;-68
2021/11/01 00:56:35;;;;;;;50.40;38.60;;;;;;;4.62;76.70;101006.84;1702223;81;21016;-67
2021/11/01 00:59:03;;;;;;;45.17;37.00;;;;;;;4.58;76.81;101008.91;1702477;83;21046;-69
2021/11/01 01:01:33;;;;;;;51.03;38.53;;;;;;;4.60;76.76;101006.97;1711477;83;21019;-68
2021/11/01 01:04:01;;;;;;;49.27;39.60;;;;;;;4.61;76.72;101012.58;1713856;83;21060;-70
2021/11/01 01:06:28;;;;;;;50.80;39.17;;;;;;;4.59;76.83;101001.81;1709174;83;21005;-69
2021/11/01 01:08:54;;;;;;;51.17;40.20;;;;;;;4.54;77.07;101010.61;1707311;83;20990;-69
2021/11/01 01:11:21;;;;;;;59.70;41.15;;;;;;;4.49;77.32;101005.73;1704605;82;21013;-69
2021/11/01 01:13:47;;;;;;;;;;;;;;;4.45;77.36;101003.02;1676430;84;21072;-67
2021/11/01 01:18:42;;;;;;;48.73;37.17;;;;;;;4.47;77.56;101006.36;1665683;85;21050;-69
2021/11/01 01:23:57;;;;;;;47.53;38.17;;;;;;;4.56;77.57;100996.78;1682683;83;21496;-69
2021/11/01 01:26:25;;;;;;;52.60;39.27;;;;;;;4.56;77.72;100993.69;1718160;82;21033;-68
2021/11/01 01:28:51;;;;;;;54.30;40.73;;;;;;;4.51;77.94;100989.28;1682567;84;21018;-69
2021/11/01 01:31:17;;;;;;;55.55;41.08;;;;;;;4.48;77.98;100982.47;1713484;83;21037;-70
2021/11/01 01:33:44;;;;;;;56.13;38.98;;;;;;;4.43;78.06;100982.02;1692435;83;21057;-68
2021/11/01 01:36:11;;;;;;;47.38;36.93;;;;;;;4.37;78.19;100983.88;1697446;83;21021;-68
2021/11/01 01:38:37;;;;;;;49.47;37.30;;;;;;;4.33;77.90;100977.66;1693908;83;20973;-67
2021/11/01 01:41:17;;;;;;;51.05;38.70;;;;;;;4.27;78.16;100979.85;1696761;83;21565;-68
2021/11/01 01:43:52;;;;;;;48.00;37.63;;;;;;;4.26;78.44;100976.88;1694961;83;20970;-68
2021/11/01 01:46:20;;;;;;;49.57;39.67;;;;;;;4.25;78.78;100969.09;1687036;83;21129;-69
2021/11/01 01:48:47;;;;;;;55.10;42.00;;;;;;;4.19;79.06;100969.63;1667033;84;21020;-69
2021/11/01 01:51:13;;;;;;;48.60;37.33;;;;;;;4.16;79.16;100974.66;1675770;84;21110;-68
2021/11/01 01:53:40;;;;;;;;;;;;;;;4.17;79.10;100963.64;1672790;84;21057;-68
2021/11/01 01:56:07;;;;;;;48.37;38.07;;;;;;;4.23;78.95;100963.11;1676633;82;20167;-69
2021/11/01 01:58:45;;;;;;;56.98;38.00;;;;;;;4.23;78.97;100963.94;1704194;82;20996;-68
2021/11/01 02:01:15;;;;;;;49.83;38.57;;;;;;;4.26;79.03;100968.13;1705538;82;21136;-69
2021/11/01 02:03:45;;;;;;;50.50;38.83;;;;;;;4.23;78.98;100967.06;1689318;83;21556;-68
2021/11/01 02:06:53;;;;;;;53.30;39.73;;;;;;;4.19;79.08;100964.34;1691122;83;21509;-68
2021/11/01 02:09:35;;;;;;;52.03;37.90;;;;;;;4.14;79.18;100957.30;1666762;84;21530;-69
2021/11/01 02:12:07;;;;;;;49.67;36.73;;;;;;;4.09;78.75;100968.26;1675165;84;21084;-69
2021/11/01 02:14:46;;;;;;;50.77;35.87;;;;;;;4.07;78.45;100961.78;1675150;84;21042;-68
2021/11/01 02:17:17;;;;;;;48.90;37.77;;;;;;;4.06;78.34;100959.27;1683117;83;21041;-67
2021/11/01 02:19:48;;;;;;;48.43;39.17;;;;;;;4.00;78.34;100965.08;1658991;85;21033;-68
2021/11/01 02:22:22;;;;;;;51.03;39.53;;;;;;;3.93;78.66;100959.47;1696102;83;21555;-68
2021/11/01 02:25:21;;;;;;;52.27;37.53;;;;;;;3.90;78.67;100955.80;1682207;84;21050;-68
2021/11/01 02:28:59;;;;;;;44.60;35.23;;;;;;;3.82;78.55;100961.69;1680632;84;21582;-68
2021/11/01 02:31:27;;;;;;;48.83;37.27;;;;;;;3.78;78.73;100952.86;1684397;84;21040;-69
2021/11/01 02:33:54;;;;;;;46.57;36.67;;;;;;;3.79;78.93;100952.73;1700357;82;20975;-67
2021/11/01 02:36:21;;;;;;;49.87;36.73;;;;;;;3.83;78.87;100954.64;1702322;82;21535;-69
2021/11/01 02:38:52;;;;;;;46.17;37.20;;;;;;;3.85;78.97;100955.34;1710870;82;21769;-70
2021/11/01 02:41:24;;;;;;;49.93;37.97;;;;;;;3.83;79.25;100952.00;1699062;82;21055;-68
2021/11/01 02:43:54;;;;;;;48.40;36.77;;;;;;;3.82;79.32;100951.14;1711598;83;21032;-69
2021/11/01 02:46:22;;;;;;;47.60;36.70;;;;;;;3.80;79.37;100949.61;1682172;84;20969;-69
2021/11/01 02:48:51;;;;;;;50.70;38.03;;;;;;;3.76;79.20;100942.92;1672609;84;21034;-68
2021/11/01 02:51:20;;;;;;;45.30;36.03;;;;;;;3.78;79.05;100943.62;1672298;84;20980;-68
2021/11/01 02:53:50;;;;;;;47.30;36.40;;;;;;;3.79;79.04;100945.31;1695256;83;21112;-69
2021/11/01 02:56:17;;;;;;;46.87;35.00;;;;;;;3.77;79.03;100941.95;1701704;82;20982;-68
2021/11/01 02:58:45;;;;;;;49.80;36.17;;;;;;;3.75;79.28;100939.92;1681015;84;21076;-69
2021/11/01 03:01:15;;;;;;;43.60;35.57;;;;;;;3.65;79.39;100943.82;1710390;82;20983;-69
2021/11/01 03:03:42;;;;;;;49.60;38.43;;;;;;;3.56;79.75;100936.22;1704542;82;20967;-68
2021/11/01 03:06:12;;;;;;;47.37;35.50;;;;;;;3.48;79.93;100942.59;1692149;84;21069;-68
2021/11/01 03:08:40;;;;;;;43.50;35.50;;;;;;;3.45;80.03;100939.73;1681719;84;21068;-68
2021/11/01 03:11:09;;;;;;;48.80;36.23;;;;;;;3.48;80.01;100936.00;1710330;82;21521;-69
2021/11/01 03:13:36;;;;;;;48.07;36.60;;;;;;;3.48;79.97;100934.68;1707684;82;21016;-68
2021/11/01 03:16:06;;;;;;;45.17;35.60;;;;;;;3.48;80.01;100932.05;1712849;82;21446;-72
2021/11/01 03:18:48;;;;;;;45.60;34.80;;;;;;;3.30;80.15;100910.22;1680503;84;21018;-68
2021/11/01 03:21:18;;;;;;;52.10;38.97;;;;;;;3.40;80.24;100930.54;1710861;82;21049;-69
2021/11/01 03:23:49;;;;;;;48.97;36.63;;;;;;;3.32;80.50;100931.17;1681343;84;21549;-69
2021/11/01 03:26:22;;;;;;;48.40;36.17;;;;;;;3.35;80.65;100935.34;1681170;84;21062;-68
2021/11/01 03:28:55;;;;;;;50.87;36.37;;;;;;;3.40;80.39;100931.36;1680903;84;21021;-69
2021/11/01 03:31:24;;;;;;;42.70;33.47;;;;;;;3.44;80.26;100930.63;1720846;82;20994;-69
2021/11/01 03:33:52;;;;;;;44.13;36.30;;;;;;;3.48;80.18;100932.05;1711386;81;20979;-67
2021/11/01 03:36:20;;;;;;;50.67;37.53;;;;;;;3.49;80.07;100924.51;1705443;82;21001;-68
2021/11/01 03:38:47;;;;;;;41.67;35.03;;;;;;;3.45;80.16;100922.61;1677333;84;20959;-68
2021/11/01 03:41:16;;;;;;;46.20;35.70;;;;;;;3.44;80.14;100918.77;1700663;82;21079;-68
2021/11/01 03:43:54;;;;;;;44.10;35.17;;;;;;;3.38;79.91;100921.44;1700790;82;21012;-68
2021/11/01 03:46:25;;;;;;;46.00;34.90;;;;;;;3.36;79.82;100921.22;1700443;82;21012;-67
2021/11/01 03:48:46;;;;;;;44.83;35.50;;;;;;;3.39;79.71;100914.36;1708531;82;21078;-68
2021/11/01 03:51:26;;;;;;;38.23;32.95;;;;;;;3.40;79.67;100912.09;1699835;82;21069;-67
2021/11/01 03:53:41;;;;;;;44.53;33.47;;;;;;;3.46;79.65;100904.98;1695710;82;21768;-68
2021/11/01 03:56:07;;;;;;;;;;;;;;;3.46;79.59;100911.57;1702286;81;21053;-69
2021/11/01 03:58:34;;;;;;;52.53;35.13;;;;;;;3.40;79.63;100908.97;1688905;84;20385;-68
2021/11/01 04:01:01;;;;;;;48.17;36.37;;;;;;;3.31;79.99;100909.27;1713683;82;20967;-70
2021/11/01 04:03:28;;;;;;;43.28;33.98;;;;;;;3.30;80.05;100911.53;1708082;82;21505;-68
2021/11/01 04:06:02;;;;;;;45.63;34.53;;;;;;;3.34;79.87;100910.80;1702257;82;21049;-68
2021/11/01 04:08:24;;;;;;;49.73;35.17;;;;;;;3.39;79.56;100904.67;1704054;82;21053;-67
2021/11/01 04:10:51;;;;;;;45.00;33.42;;;;;;;3.43;79.35;100900.81;1716700;82;21034;-68
2021/11/01 04:13:17;;;;;;;44.30;34.85;;;;;;;3.42;79.23;100901.77;1711247;82;21027;-68
2021/11/01 04:15:49;;;;;;;54.48;38.40;;;;;;;3.36;79.32;100898.83;1693029;82;21000;-68
2021/11/01 04:18:23;;;;;;;45.87;36.00;;;;;;;3.30;79.48;100901.00;1691040;83;21009;-68
2021/11/01 04:20:53;;;;;;;46.60;33.77;;;;;;;3.27;79.51;100893.83;1681558;83;21070;-68
2021/11/01 04:23:18;;;;;;;48.95;34.90;;;;;;;3.25;79.27;100886.53;1693773;82;21140;-69
2021/11/01 04:25:45;;;;;;;43.47;35.93;;;;;;;3.27;79.12;100882.80;1689486;83;21099;-69
2021/11/01 04:28:11;;;;;;;49.35;35.98;;;;;;;3.30;78.87;100885.67;1708297;83;21012;-69
2021/11/01 04:30:43;;;;;;;44.95;36.63;;;;;;;3.29;78.94;100883.50;1706950;83;21120;-68
2021/11/01 04:33:14;;;;;;;46.00;36.57;;;;;;;3.29;79.20;100874.77;1714565;83;21064;-70
2021/11/01 04:35:40;;;;;;;42.67;35.03;;;;;;;3.26;79.37;100882.95;1695274;83;21097;-70
2021/11/01 04:54:03;;;;;;;47.03;35.17;;;;;;;3.16;78.97;100885.97;1703608;83;21049;-70
2021/11/01 04:56:30;;;;;;;46.50;38.20;;;;;;;3.06;79.20;100876.68;1691856;83;20976;-68
2021/11/01 04:58:58;;;;;;;45.65;37.65;;;;;;;2.98;79.57;100876.00;1695218;83;21089;-68
2021/11/01 05:01:33;;;;;;;51.90;39.13;;;;;;;2.96;79.83;100884.51;1639689;85;21020;-68
2021/11/01 05:03:59;;;;;;;47.83;37.47;;;;;;;2.98;79.85;100883.07;1642950;85;21127;-70
2021/11/01 05:06:26;;;;;;;42.73;33.60;;;;;;;3.07;79.70;100882.28;1643991;86;21112;-69
2021/11/01 05:09:18;;;;;;;52.33;36.97;;;;;;;3.15;79.51;100883.83;1644131;86;21086;-70
2021/11/01 05:11:33;;;;;;;51.57;37.90;;;;;;;3.20;79.15;100885.61;1639302;86;21120;-69
2021/11/01 05:13:59;;;;;;;;;;;;;;;3.23;79.36;100880.55;1656589;85;21625;-69
2021/11/01 05:19:25;;;;;;;46.93;37.80;;;;;;;3.22;79.57;100883.68;1681895;84;21034;-68
2021/11/01 05:24:40;;;;;;;51.27;37.17;;;;;;;3.30;79.31;100884.36;1691326;83;21045;-70
2021/11/01 05:29:50;;;;;;;47.27;37.50;;;;;;;3.56;78.23;100887.45;1689570;83;21088;-71
2021/11/01 05:32:20;;;;;;;48.27;39.40;;;;;;;3.72;78.08;100882.19;1682980;83;21171;-69
2021/11/01 05:34:43;;;;;;;56.33;41.77;;;;;;;3.85;77.76;100886.77;1704646;82;20979;-69
2021/11/01 05:40:13;;;;;;;59.70;45.70;;;;;;;4.27;76.33;100878.74;1795802;78;22790;-67
2021/11/01 05:42:40;;;;;;;63.47;46.03;;;;;;;4.39;76.23;100882.10;1767761;80;21549;-70
2021/11/01 05:45:07;;;;;;;55.45;42.33;;;;;;;4.48;75.14;100883.47;1765823;80;20951;-68
2021/11/01 05:47:33;;;;;;;57.13;44.30;;;;;;;4.46;74.55;100886.73;1746374;80;21014;-68
2021/11/01 05:50:00;;;;;;;55.60;41.28;;;;;;;4.44;74.26;100886.01;1748069;81;21065;-71
2021/11/01 05:52:29;;;;;;;;;;;;;;;4.51;74.02;100892.09;1753767;80;21006;-69
2021/11/01 05:54:59;;;;;;;;;;;;;;;4.55;73.77;100886.39;1742124;80;20197;-69
2021/11/01 05:57:42;;;;;;;;;;;;;;;4.54;74.02;100893.12;1753886;80;20138;-71
2021/11/01 06:02:39;;;;;;;57.97;41.97;;;;;;;4.40;74.24;100889.89;1681321;82;21033;-70
2021/11/01 06:05:08;;;;;;;60.33;44.00;;;;;;;4.36;74.50;100892.45;1676343;84;21090;-69
2021/11/01 06:10:37;;;;;;;57.80;40.53;;;;;;;4.37;74.42;100895.92;1668423;84;21570;-70
2021/11/01 06:15:35;;;;;;;56.67;41.80;;;;;;;4.43;74.31;100897.55;1704028;83;21568;-70
2021/11/01 06:18:01;;;;;;;56.92;44.18;;;;;;;4.38;74.80;100894.97;1661208;83;20981;-71
2021/11/01 06:20:27;;;;;;;57.83;45.12;;;;;;;4.39;74.93;100898.80;1702810;83;21199;-70
2021/11/01 06:22:54;;;;;;;64.35;48.00;;;;;;;4.45;75.06;100896.11;1686377;83;20987;-69
2021/11/01 06:25:20;;;;;;;72.10;46.48;;;;;;;4.52;74.46;100897.24;1680390;84;21029;-71
2021/11/01 06:27:48;;;;;;;70.03;46.67;;;;;;;4.57;74.39;100896.82;1675102;84;20997;-71
2021/11/01 06:32:45;;;;;;;63.13;47.03;;;;;;;4.67;73.96;100891.92;1683807;84;21021;-73
2021/11/01 06:43:18;;;;;;;68.28;49.40;;;;;;;4.75;73.82;100885.13;1724335;82;21033;-72
2021/11/01 06:51:27;;;;;;;61.13;46.77;;;;;;;5.03;73.39;100871.59;1721868;82;20994;-71
2021/11/01 07:15:37;;;;;;;91.77;62.17;;;;;;;5.84;72.36;100866.71;1727610;81;21068;-70
2021/11/01 07:20:40;;;;;;;;;;;;;;;6.03;71.83;100868.48;1730901;81;21458;-74
2021/11/01 07:23:35;;;;;;;91.37;58.93;;;;;;;6.17;71.55;100870.30;1720884;81;20167;-73
2021/11/01 08:22:58;;;;;;;71.93;45.47;;;;;;;7.92;69.43;100819.75;1657962;85;21027;-69
2021/11/01 09:06:56;;;;;;;158.03;64.90;;;;;;;9.63;64.02;100786.03;1630389;87;21571;-69
2021/11/01 09:20:40;;;;;;;135.57;54.93;;;;;;;9.81;63.83;100759.17;1596284;88;21027;-71
2021/11/01 09:29:02;;;;;;;78.10;41.93;;;;;;;10.26;63.08;100755.77;1664340;85;21584;-71
2021/11/01 09:41:06;;;;;;;80.80;41.93;;;;;;;10.35;63.74;100743.26;1630667;87;21345;-72
2021/11/01 09:43:31;;;;;;;81.20;39.30;;;;;;;10.39;63.93;100741.89;1644038;87;21094;-69
2021/11/01 09:46:11;;;;;;;47.57;33.20;;;;;;;10.35;64.05;100717.95;1647192;87;21035;-71
2021/11/01 09:48:40;;;;;;;72.73;39.90;;;;;;;10.41;64.02;100724.40;1638289;85;21042;-71
2021/11/01 09:51:11;;;;;;;65.97;36.50;;;;;;;10.41;64.10;100728.40;1645851;86;20979;-72
2021/11/01 09:53:45;;;;;;;43.60;33.47;;;;;;;10.48;64.00;100722.69;1636537;86;21030;-71
2021/11/01 09:59:14;;;;;;;42.45;30.00;;;;;;;10.55;63.67;100710.31;1689334;84;20976;-72
2021/11/01 10:01:42;;;;;;;50.67;31.97;;;;;;;10.61;63.33;100711.44;1678415;84;21025;-71
2021/11/01 10:04:28;;;;;;;44.97;32.53;;;;;;;10.75;63.39;100714.63;1690971;83;21608;-72
2021/11/01 10:07:23;;;;;;;57.97;36.57;;;;;;;10.93;62.71;100711.64;1691832;83;20982;-71
2021/11/01 10:09:54;;;;;;;55.33;34.50;;;;;;;11.02;61.82;100710.55;1691654;83;20991;-72
2021/11/01 10:12:32;;;;;;;51.90;33.93;;;;;;;11.01;62.12;100706.22;1687693;82;21026;-70
2021/11/01 10:18:04;;;;;;;49.60;34.47;;;;;;;11.06;61.66;100696.34;1688530;83;21007;-71
2021/11/01 10:20:32;;;;;;;;;;;;;;;11.06;61.91;100701.17;1692843;83;20971;-72
2021/11/01 10:22:59;;;;;;;69.07;35.83;;;;;;;11.08;61.85;100693.81;1688860;82;20109;-69
2021/11/01 10:25:26;;;;;;;46.20;31.83;;;;;;;11.04;62.04;100683.70;1685617;83;21078;-72
2021/11/01 10:27:56;;;;;;;;;;;;;;;11.02;62.12;100693.70;1671262;83;21020;-71
2021/11/01 10:30:28;;;;;;;57.20;35.80;;;;;;;10.98;62.43;100697.75;1689196;83;20408;-72
2021/11/01 10:32:59;;;;;;;43.17;31.17;;;;;;;10.82;62.84;100682.75;1686944;83;21042;-72
2021/11/01 10:35:35;;;;;;;62.60;33.50;;;;;;;10.74;63.00;100686.32;1685699;82;21094;-71
2021/11/01 10:43:42;;;;;;;65.07;32.63;;;;;;;10.79;63.46;100679.92;1688260;83;21620;-71
2021/11/01 11:11:37;;;;;;;68.33;34.20;;;;;;;11.04;62.43;100663.18;1689944;83;21620;-69
2021/11/01 11:14:24;;;;;;;61.30;33.60;;;;;;;10.97;62.44;100662.25;1685013;84;21606;-70
2021/11/01 11:30:27;;;;;;;45.90;32.13;;;;;;;10.98;62.92;100631.91;1684682;83;21007;-71
2021/11/01 11:38:23;;;;;;;71.30;37.03;;;;;;;11.07;62.57;100624.63;1687040;83;21336;-70
2021/11/01 11:49:16;;;;;;;39.33;27.70;;;;;;;11.07;62.35;100617.95;1681436;84;22172;-71
2021/11/01 11:52:05;;;;;;;31.83;26.80;;;;;;;11.04;62.37;100611.16;1683744;83;21020;-72
2021/11/01 11:54:38;;;;;;;34.30;26.80;;;;;;;10.99;62.47;100615.40;1689206;83;21085;-70
2021/11/01 11:57:26;;;;;;;50.17;30.87;;;;;;;10.93;62.76;100614.30;1679095;83;20979;-73
2021/11/01 11:59:56;;;;;;;35.75;29.15;;;;;;;10.94;62.79;100599.93;1690926;83;20984;-72
2021/11/01 12:02:41;;;;;;;46.77;35.73;;;;;;;10.97;62.89;100604.09;1686526;83;21062;-72
2021/11/01 12:05:26;;;;;;;39.70;30.63;;;;;;;11.03;62.83;100605.49;1682051;85;21094;-70
2021/11/01 12:08:11;;;;;;;40.20;28.60;;;;;;;11.10;62.62;100595.75;1664527;83;21138;-72
2021/11/01 12:19:05;;;;;;;27.73;24.30;;;;;;;11.32;61.60;100584.30;1623699;86;21121;-71
2021/11/01 12:21:36;;;;;;;33.03;24.77;;;;;;;11.24;61.60;100586.58;1631600;86;21078;-71
2021/11/01 12:24:12;;;;;;;34.47;26.83;;;;;;;11.19;61.64;100579.63;1677720;84;21512;-73
2021/11/01 12:26:44;;;;;;;42.27;26.87;;;;;;;11.15;61.86;100576.53;1661337;84;21046;-72
2021/11/01 12:29:10;;;;;;;34.17;22.53;;;;;;;11.16;61.97;100570.68;1672564;84;21063;-71
2021/11/01 12:31:37;;;;;;;32.93;25.03;;;;;;;11.15;61.83;100571.20;1682474;84;21292;-73
2021/11/01 12:36:48;;;;;;;38.80;26.23;;;;;;;11.15;61.93;100563.19;1674857;84;21082;-73
2021/11/01 12:39:30;;;;;;;30.03;25.13;;;;;;;11.16;61.96;100554.16;1682556;84;21099;-73
2021/11/01 12:47:47;;;;;;;23.90;21.33;;;;;;;11.17;61.99;100559.83;1687367;84;20997;-71
2021/11/01 12:58:03;;;;;;;30.13;24.60;;;;;;;11.14;62.29;100552.70;1647245;85;21063;-72
2021/11/01 13:00:40;;;;;;;29.60;25.83;;;;;;;11.17;62.31;100565.64;1681556;84;21098;-70
2021/11/01 13:03:16;;;;;;;26.90;24.10;;;;;;;11.18;62.31;100553.45;1650388;84;21623;-71
2021/11/01 13:05:51;;;;;;;22.73;20.33;;;;;;;11.24;62.17;100557.22;1665350;84;21531;-71
2021/11/01 13:08:21;;;;;;;25.23;22.60;;;;;;;11.34;61.97;100554.25;1637960;86;21101;-73
2021/11/01 13:10:50;;;;;;;27.52;23.50;;;;;;;11.38;61.96;100548.37;1642837;86;21017;-72
2021/11/01 13:19:17;;;;;;;26.68;23.60;;;;;;;11.42;61.89;100540.30;1648676;85;21141;-70
2021/11/01 13:22:11;;;;;;;27.43;22.70;;;;;;;11.41;61.97;100539.96;1662661;85;20986;-72
2021/11/01 13:38:40;;;;;;;24.57;21.37;;;;;;;11.18;62.87;100520.62;1630285;86;21000;-72
2021/11/01 13:41:16;;;;;;;26.83;21.60;;;;;;;11.10;63.18;100514.38;1662825;85;21029;-72
2021/11/01 13:43:45;;;;;;;25.73;20.63;;;;;;;11.12;63.24;100527.54;1652600;85;21066;-70
2021/11/01 13:46:14;;;;;;;25.30;21.30;;;;;;;11.19;63.16;100522.27;1637152;83;21093;-72
2021/11/01 13:48:41;;;;;;;26.90;20.93;;;;;;;11.18;63.17;100511.29;1628723;86;21026;-73
2021/11/01 13:51:13;;;;;;;24.87;20.97;;;;;;;11.18;63.20;100517.44;1635118;86;21093;-69
2021/11/01 14:18:46;;;;;;;108.07;42.40;;;;;;;10.77;64.82;100529.95;1659409;85;21010;-71
2021/11/01 15:17:01;;;;;;;29.25;22.90;;;;;;;9.50;70.21;100515.14;1610322;88;21110;-70
2021/11/01 15:22:08;;;;;;;30.60;25.73;;;;;;;9.58;70.03;100515.59;1625906;87;21594;-70
2021/11/01 15:27:33;;;;;;;30.23;27.03;;;;;;;9.45;70.57;100530.30;1653072;85;21092;-71
2021/11/01 15:40:33;;;;;;;39.63;27.63;;;;;;;9.20;71.06;100523.48;1652871;85;21173;-72
2021/11/01 16:15:46;;;;;;;34.97;28.47;;;;;;;8.35;75.19;100539.53;1636374;85;21499;-69
2021/11/01 16:20:32;;;;;;;29.97;26.70;;;;;;;8.39;74.90;100527.05;1637862;86;21584;-69
2021/11/01 16:23:28;;;;;;;37.43;29.07;;;;;;;8.37;74.96;100530.39;1653751;86;21060;-70
2021/11/01 16:25:42;;;;;;;35.23;28.47;;;;;;;8.36;74.93;100530.55;1623514;86;21066;-72
2021/11/01 16:28:10;;;;;;;30.12;26.95;;;;;;;8.39;74.91;100535.53;1648405;86;21000;-71
2021/11/01 16:30:37;;;;;;;36.93;28.53;;;;;;;8.48;74.68;100539.86;1649517;86;21059;-69
2021/11/01 16:33:07;;;;;;;37.23;27.90;;;;;;;8.54;74.49;100538.36;1651033;85;21567;-70
2021/11/01 16:35:48;;;;;;;35.30;30.47;;;;;;;8.55;74.39;100537.34;1605635;88;21131;-70
2021/11/01 16:40:42;;;;;;;39.67;30.40;;;;;;;8.53;74.35;100537.53;1612699;86;21165;-69
2021/11/01 16:43:18;;;;;;;38.50;29.57;;;;;;;8.51;74.31;100536.03;1625770;86;21653;-71
2021/11/01 16:45:49;;;;;;;34.50;27.97;;;;;;;8.50;74.50;100540.52;1618089;86;21052;-68
2021/11/01 16:48:15;;;;;;;36.40;27.17;;;;;;;8.54;74.32;100534.38;1635231;86;21114;-71
2021/11/01 16:50:41;;;;;;;33.28;27.02;;;;;;;8.58;74.19;100548.46;1633997;86;21031;-70
2021/11/01 16:53:07;;;;;;;37.03;30.73;;;;;;;8.58;74.12;100545.80;1633257;86;21062;-69
2021/11/01 16:55:37;;;;;;;;;;;;;;;8.53;74.18;100544.17;1635070;86;21116;-69
2021/11/01 16:58:24;;;;;;;37.07;30.30;;;;;;;8.51;74.27;100536.88;1633856;86;20197;-68
2021/11/01 17:24:52;;;;;;;64.43;36.10;;;;;;;8.75;73.81;100516.53;1644545;85;21065;-70
2021/11/01 17:35:46;;;;;;;54.13;31.50;;;;;;;8.81;73.56;100505.70;1566569;90;21218;-72
2021/11/01 18:40:53;;;;;;;41.43;31.57;;;;;;;8.49;73.90;100460.98;1703568;83;20949;-70
2021/11/01 18:43:14;;;;;;;42.77;33.07;;;;;;;8.51;73.77;100458.98;1691157;83;22343;-71
2021/11/01 18:45:56;;;;;;;47.13;33.93;;;;;;;8.54;73.67;100456.00;1694838;83;21029;-72
2021/11/01 18:51:08;;;;;;;46.83;35.85;;;;;;;8.49;73.67;100460.48;1689738;83;20997;-71
2021/11/01 18:53:46;;;;;;;44.97;36.77;;;;;;;8.40;73.73;100457.52;1684489;83;21024;-73
2021/11/01 18:56:12;;;;;;;49.13;36.50;;;;;;;8.32;73.94;100452.22;1688247;83;20977;-72
2021/11/01 18:58:41;;;;;;;42.40;32.47;;;;;;;8.29;73.93;100450.73;1673624;83;21644;-72
2021/11/01 19:01:11;;;;;;;42.43;33.47;;;;;;;8.33;73.83;100451.23;1680718;83;21042;-71
2021/11/01 19:03:45;;;;;;;49.67;36.97;;;;;;;8.33;73.72;100444.59;1672403;84;21050;-72
2021/11/01 20:05:52;;;;;;;50.50;39.90;;;;;;;7.10;76.35;100425.62;1663796;85;21047;-68
2021/11/01 20:11:19;;;;;;;46.30;37.47;;;;;;;7.09;76.51;100419.98;1662745;85;21601;-69
2021/11/01 20:13:46;;;;;;;50.47;38.43;;;;;;;7.14;76.33;100419.47;1662742;85;21049;-68
2021/11/01 21:25:56;;;;;;;46.85;37.88;;;;;;;6.33;78.08;100366.16;1690831;83;21052;-68
2021/11/01 21:28:22;;;;;;;56.37;38.93;;;;;;;6.39;77.92;100366.01;1688387;83;21469;-68
2021/11/01 21:30:49;;;;;;;52.65;39.75;;;;;;;6.42;77.90;100363.88;1692954;83;21044;-67
2021/11/01 21:33:21;;;;;;;50.93;38.90;;;;;;;6.46;77.90;100363.53;1690849;82;21031;-66
2021/11/01 21:35:51;;;;;;;47.63;38.03;;;;;;;6.44;77.99;100367.66;1692449;83;21509;-67
2021/11/01 21:38:14;;;;;;;49.63;39.53;;;;;;;6.43;77.98;100366.84;1672053;83;21378;-67
2021/11/01 21:40:47;;;;;;;54.03;41.47;;;;;;;6.41;77.96;100367.50;1688720;83;21508;-67
2021/11/01 21:43:13;;;;;;;51.13;37.73;;;;;;;6.41;77.85;100368.00;1692443;83;20966;-68
2021/11/01 21:45:40;;;;;;;53.13;37.47;;;;;;;6.43;77.71;100360.22;1652949;84;21022;-67
2021/11/01 21:48:07;;;;;;;47.90;37.57;;;;;;;6.46;77.67;100362.20;1647264;84;21121;-69
2021/11/01 21:50:33;;;;;;;43.08;37.80;;;;;;;6.44;77.69;100359.72;1634707;86;21089;-67
2021/11/01 21:53:01;;;;;;;45.83;37.75;;;;;;;6.36;77.83;100357.88;1658350;84;21518;-69
2021/11/01 21:55:29;;;;;;;47.63;34.93;;;;;;;6.27;78.04;100353.53;1654111;84;21680;-70
2021/11/01 21:58:04;;;;;;;45.53;38.07;;;;;;;6.22;78.31;100349.23;1662924;84;21113;-66
2021/11/01 22:16:49;;;;;;;48.43;37.63;;;;;;;6.02;79.18;100343.35;1702742;82;21094;-68
2021/11/01 22:21:49;;;;;;;53.17;39.93;;;;;;;6.10;79.02;100328.82;1699527;82;21129;-65
2021/11/01 22:24:20;;;;;;;50.83;40.30;;;;;;;6.10;79.21;100329.33;1701807;82;21576;-67
2021/11/01 22:40:19;;;;;;;54.03;41.60;;;;;;;6.14;78.83;100314.30;1605224;85;21157;-66
2021/11/01 22:42:58;;;;;;;53.53;41.87;;;;;;;6.11;78.76;100309.83;1656990;85;21090;-66
2021/11/01 22:58:29;;;;;;;58.33;43.43;;;;;;;6.10;78.65;100309.48;1641104;85;21019;-67
2021/11/01 23:01:11;;;;;;;51.90;39.88;;;;;;;6.09;78.76;100307.84;1654473;85;21073;-66
2021/11/01 23:03:42;;;;;;;57.50;38.40;;;;;;;6.07;78.73;100304.02;1650447;86;21090;-65
2021/11/01 23:33:23;;;;;;;60.27;44.57;;;;;;;6.13;79.21;100269.47;1688167;82;21023;-66
2021/11/01 23:35:51;;;;;;;57.33;45.17;;;;;;;6.14;79.17;100267.14;1708991;82;20987;-68
2021/11/01 23:38:18;;;;;;;51.93;42.13;;;;;;;6.16;79.05;100267.33;1695789;82;21086;-67
2021/11/01 23:40:46;;;;;;;57.37;43.63;;;;;;;6.19;78.68;100264.34;1691415;83;21584;-66
2021/11/01 23:43:13;;;;;;;51.47;40.57;;;;;;;6.21;78.47;100265.52;1684629;82;20948;-66
2021/11/01 23:45:45;;;;;;;50.60;39.47;;;;;;;6.26;78.35;100255.28;1692954;82;21019;-66
2021/11/01 23:48:13;;;;;;;51.30;39.90;;;;;;;6.32;78.11;100257.27;1689947;82;21069;-67
2021/11/01 23:50:41;;;;;;;50.47;40.30;;;;;;;6.37;78.00;100256.29;1680661;83;20980;-66
2021/11/01 23:53:17;;;;;;;50.37;41.53;;;;;;;6.40;77.68;100252.00;1683785;82;21010;-67
2021/11/01 23:55:43;;;;;;;55.57;42.60;;;;;;;6.35;77.64;100247.69;1700470;82;21262;-66
2021/11/01 23:58:10;;;;;;;55.30;42.93;;;;;;;6.30;77.65;100247.34;1701412;83;20979;-66
